This is the latest recevied weather packets stored in our database for station/object N0MR. If no packets are shown the sender has not sent any weather packets the latest 10 day(s).
| Time | Temp. | Humidity | Pressure | Rain* | Wind** | Luminosity | Snow |
|---|---|---|---|---|---|---|---|
| 1777491727 | 5° C | 52% | 1017.4 hPa | 0 mm | - | - | - |
| 1777491128 | 5° C | 52% | 1017.4 hPa | 0 mm | - | - | - |
| 1777490527 | 5° C | 58% | 1017.4 hPa | 0 mm | - | - | - |
| 1777489928 | 5° C | 58% | 1017.4 hPa | 0 mm | - | - | - |
| 1777489327 | 5° C | 58% | 1017.4 hPa | 0 mm | - | - | - |
| 1777488728 | 5° C | 58% | 1017.4 hPa | 0 mm | - | - | - |
| 1777488128 | 4.44° C | 57% | 1017.3 hPa | 0 mm | - | - | - |
| 1777487530 | 4.44° C | 57% | 1017.3 hPa | 0 mm | - | - | - |
| 1777486927 | 5° C | 57% | 1017.4 hPa | 0 mm | - | - | - |
| 1777486331 | 4.44° C | 59% | 1017.4 hPa | 0 mm | - | - | - |
| 1777485727 | 4.44° C | 59% | 1017.4 hPa | 0 mm | - | - | - |
| 1777485127 | 3.89° C | 64% | 1017.6 hPa | 0 mm | - | - | - |
| 1777484528 | 3.89° C | 64% | 1017.6 hPa | 0 mm | - | - | - |
| 1777483928 | 3.33° C | 69% | 1017.7 hPa | 0 mm | - | - | - |
| 1777483327 | 3.33° C | 69% | 1017.7 hPa | 0 mm | - | - | - |
| 1777482728 | 2.22° C | 76% | 1017.7 hPa | 0 mm | - | - | - |
| 1777482128 | 2.22° C | 76% | 1017.7 hPa | 0 mm | - | - | - |
| 1777481527 | 1.67° C | 83% | 1017.9 hPa | 0 mm | - | - | - |
| 1777480929 | 1.67° C | 83% | 1017.9 hPa | 0 mm | - | - | - |
| 1777480329 | 2.78° C | 75% | 1017.9 hPa | 0 mm | - | - | - |
| 1777479729 | 2.78° C | 75% | 1017.9 hPa | 0 mm | - | - | - |
| 1777479128 | 3.89° C | 69% | 1017.6 hPa | 0 mm | - | - | - |
| 1777478528 | 3.89° C | 69% | 1017.6 hPa | 0 mm | - | - | - |
| 1777477929 | 3.89° C | 69% | 1017.6 hPa | 0 mm | - | - | - |
| 1777477328 | 3.89° C | 69% | 1017.6 hPa | 0 mm | - | - | - |
* Rain latest hour (hover to see other rain measurements)
** Current wind speed in m/s (hover to see current wind gust speed)